sensor_id;sensor_type;location;lat;lon;timestamp;P1;durP1;ratioP1;P2;durP2;ratioP2
21281;SDS011;10800;53.096;18.328;2024-02-23T00:01:10;10.53;;;4.83;;
21281;SDS011;10800;53.096;18.328;2024-02-23T00:06:20;8.93;;;4.77;;
21281;SDS011;10800;53.096;18.328;2024-02-23T00:11:39;5.87;;;3.30;;
21281;SDS011;10800;53.096;18.328;2024-02-23T00:16:53;9.87;;;4.70;;
21281;SDS011;10800;53.096;18.328;2024-02-23T00:22:02;8.40;;;4.33;;
21281;SDS011;10800;53.096;18.328;2024-02-23T00:27:11;15.40;;;4.83;;
21281;SDS011;10800;53.096;18.328;2024-02-23T00:32:20;15.20;;;5.43;;
21281;SDS011;10800;53.096;18.328;2024-02-23T00:37:28;14.23;;;5.33;;
21281;SDS011;10800;53.096;18.328;2024-02-23T00:42:37;10.10;;;5.10;;
21281;SDS011;10800;53.096;18.328;2024-02-23T00:47:48;10.87;;;4.17;;
21281;SDS011;10800;53.096;18.328;2024-02-23T00:53:12;13.00;;;5.43;;
21281;SDS011;10800;53.096;18.328;2024-02-23T00:58:25;9.97;;;5.03;;
21281;SDS011;10800;53.096;18.328;2024-02-23T01:03:32;10.17;;;4.93;;
21281;SDS011;10800;53.096;18.328;2024-02-23T01:08:41;12.40;;;4.43;;
21281;SDS011;10800;53.096;18.328;2024-02-23T01:13:48;7.73;;;4.27;;
21281;SDS011;10800;53.096;18.328;2024-02-23T01:18:56;7.03;;;4.03;;
21281;SDS011;10800;53.096;18.328;2024-02-23T01:24:05;7.57;;;4.17;;
21281;SDS011;10800;53.096;18.328;2024-02-23T01:29:19;9.63;;;5.00;;
21281;SDS011;10800;53.096;18.328;2024-02-23T01:34:27;5.83;;;4.20;;
21281;SDS011;10800;53.096;18.328;2024-02-23T01:39:39;6.27;;;3.70;;
21281;SDS011;10800;53.096;18.328;2024-02-23T01:44:48;6.70;;;4.23;;
21281;SDS011;10800;53.096;18.328;2024-02-23T01:49:57;7.13;;;4.17;;
21281;SDS011;10800;53.096;18.328;2024-02-23T01:55:05;6.93;;;3.73;;
21281;SDS011;10800;53.096;18.328;2024-02-23T02:00:14;8.90;;;4.17;;
21281;SDS011;10800;53.096;18.328;2024-02-23T02:05:43;7.33;;;4.53;;
21281;SDS011;10800;53.096;18.328;2024-02-23T02:10:49;10.73;;;3.97;;
21281;SDS011;10800;53.096;18.328;2024-02-23T02:15:54;7.60;;;4.20;;
21281;SDS011;10800;53.096;18.328;2024-02-23T02:21:02;7.47;;;4.13;;
21281;SDS011;10800;53.096;18.328;2024-02-23T02:26:08;11.47;;;5.27;;
21281;SDS011;10800;53.096;18.328;2024-02-23T02:31:14;9.17;;;4.57;;
21281;SDS011;10800;53.096;18.328;2024-02-23T02:36:22;11.17;;;3.80;;
21281;SDS011;10800;53.096;18.328;2024-02-23T02:41:29;7.03;;;4.20;;
21281;SDS011;10800;53.096;18.328;2024-02-23T02:46:34;6.80;;;4.03;;
21281;SDS011;10800;53.096;18.328;2024-02-23T02:51:41;11.90;;;4.30;;
21281;SDS011;10800;53.096;18.328;2024-02-23T02:56:51;7.87;;;3.70;;
21281;SDS011;10800;53.096;18.328;2024-02-23T03:01:57;8.30;;;4.07;;
21281;SDS011;10800;53.096;18.328;2024-02-23T03:07:02;10.77;;;4.30;;
21281;SDS011;10800;53.096;18.328;2024-02-23T03:12:10;5.90;;;4.20;;
21281;SDS011;10800;53.096;18.328;2024-02-23T03:17:16;8.70;;;4.27;;
21281;SDS011;10800;53.096;18.328;2024-02-23T03:22:25;7.60;;;4.27;;
21281;SDS011;10800;53.096;18.328;2024-02-23T03:27:31;5.73;;;3.90;;
21281;SDS011;10800;53.096;18.328;2024-02-23T03:32:40;9.60;;;3.80;;
21281;SDS011;10800;53.096;18.328;2024-02-23T03:37:48;10.13;;;3.53;;
21281;SDS011;10800;53.096;18.328;2024-02-23T03:42:53;8.13;;;4.30;;
21281;SDS011;10800;53.096;18.328;2024-02-23T03:48:00;8.93;;;4.30;;
21281;SDS011;10800;53.096;18.328;2024-02-23T03:53:09;8.43;;;4.17;;
21281;SDS011;10800;53.096;18.328;2024-02-23T03:58:15;5.57;;;3.27;;
21281;SDS011;10800;53.096;18.328;2024-02-23T04:03:23;4.00;;;3.13;;
21281;SDS011;10800;53.096;18.328;2024-02-23T04:08:28;8.47;;;3.80;;
21281;SDS011;10800;53.096;18.328;2024-02-23T04:13:34;6.47;;;3.80;;
21281;SDS011;10800;53.096;18.328;2024-02-23T04:18:40;7.53;;;2.97;;
21281;SDS011;10800;53.096;18.328;2024-02-23T04:23:45;7.90;;;3.07;;
21281;SDS011;10800;53.096;18.328;2024-02-23T04:28:51;8.43;;;2.53;;
21281;SDS011;10800;53.096;18.328;2024-02-23T04:33:56;5.00;;;2.73;;
21281;SDS011;10800;53.096;18.328;2024-02-23T04:39:02;3.70;;;2.33;;
21281;SDS011;10800;53.096;18.328;2024-02-23T04:44:08;3.53;;;2.13;;
21281;SDS011;10800;53.096;18.328;2024-02-23T04:49:13;4.90;;;2.17;;
21281;SDS011;10800;53.096;18.328;2024-02-23T04:54:19;4.07;;;1.83;;
21281;SDS011;10800;53.096;18.328;2024-02-23T04:59:24;3.97;;;1.93;;
21281;SDS011;10800;53.096;18.328;2024-02-23T05:04:33;3.30;;;2.00;;
21281;SDS011;10800;53.096;18.328;2024-02-23T05:09:48;1.90;;;1.43;;
21281;SDS011;10800;53.096;18.328;2024-02-23T05:14:53;2.57;;;2.00;;
21281;SDS011;10800;53.096;18.328;2024-02-23T05:20:10;3.43;;;1.50;;
21281;SDS011;10800;53.096;18.328;2024-02-23T05:25:27;2.83;;;2.03;;
21281;SDS011;10800;53.096;18.328;2024-02-23T05:30:39;2.13;;;1.40;;
21281;SDS011;10800;53.096;18.328;2024-02-23T05:35:56;2.50;;;1.63;;
21281;SDS011;10800;53.096;18.328;2024-02-23T05:41:13;8.40;;;2.10;;
21281;SDS011;10800;53.096;18.328;2024-02-23T05:46:28;5.63;;;1.73;;
21281;SDS011;10800;53.096;18.328;2024-02-23T05:51:39;4.57;;;1.80;;
21281;SDS011;10800;53.096;18.328;2024-02-23T05:56:49;2.10;;;1.40;;
21281;SDS011;10800;53.096;18.328;2024-02-23T06:02:03;4.83;;;1.50;;
21281;SDS011;10800;53.096;18.328;2024-02-23T06:07:09;3.83;;;1.63;;
21281;SDS011;10800;53.096;18.328;2024-02-23T06:12:18;4.57;;;2.00;;
21281;SDS011;10800;53.096;18.328;2024-02-23T06:17:25;3.10;;;1.07;;
21281;SDS011;10800;53.096;18.328;2024-02-23T06:22:34;2.50;;;1.43;;
21281;SDS011;10800;53.096;18.328;2024-02-23T06:27:40;1.63;;;1.40;;
21281;SDS011;10800;53.096;18.328;2024-02-23T06:32:52;5.27;;;1.80;;
21281;SDS011;10800;53.096;18.328;2024-02-23T06:38:00;2.20;;;1.20;;
21281;SDS011;10800;53.096;18.328;2024-02-23T06:43:11;2.43;;;1.30;;
21281;SDS011;10800;53.096;18.328;2024-02-23T06:48:32;1.63;;;1.10;;
21281;SDS011;10800;53.096;18.328;2024-02-23T06:53:39;0.90;;;0.90;;
21281;SDS011;10800;53.096;18.328;2024-02-23T06:58:56;2.10;;;0.70;;
21281;SDS011;10800;53.096;18.328;2024-02-23T07:04:01;1.57;;;0.90;;
21281;SDS011;10800;53.096;18.328;2024-02-23T07:09:18;1.53;;;0.83;;
21281;SDS011;10800;53.096;18.328;2024-02-23T07:14:30;1.17;;;0.80;;
21281;SDS011;10800;53.096;18.328;2024-02-23T07:19:45;1.37;;;0.83;;
21281;SDS011;10800;53.096;18.328;2024-02-23T07:25:01;1.73;;;0.90;;
21281;SDS011;10800;53.096;18.328;2024-02-23T07:30:10;0.97;;;0.67;;
21281;SDS011;10800;53.096;18.328;2024-02-23T07:35:23;1.90;;;1.20;;
21281;SDS011;10800;53.096;18.328;2024-02-23T07:40:29;1.00;;;0.90;;
21281;SDS011;10800;53.096;18.328;2024-02-23T07:46:02;1.30;;;1.00;;
21281;SDS011;10800;53.096;18.328;2024-02-23T07:51:15;1.00;;;0.93;;
21281;SDS011;10800;53.096;18.328;2024-02-23T07:56:25;2.20;;;0.93;;
21281;SDS011;10800;53.096;18.328;2024-02-23T08:01:32;3.50;;;1.03;;
21281;SDS011;10800;53.096;18.328;2024-02-23T08:06:38;0.90;;;0.70;;
21281;SDS011;10800;53.096;18.328;2024-02-23T08:11:46;1.03;;;0.63;;
21281;SDS011;10800;53.096;18.328;2024-02-23T08:16:56;1.87;;;0.70;;
21281;SDS011;10800;53.096;18.328;2024-02-23T08:22:04;0.67;;;0.40;;
21281;SDS011;10800;53.096;18.328;2024-02-23T08:27:10;1.13;;;0.80;;
21281;SDS011;10800;53.096;18.328;2024-02-23T08:32:19;1.53;;;0.60;;
21281;SDS011;10800;53.096;18.328;2024-02-23T08:37:27;4.97;;;1.07;;
21281;SDS011;10800;53.096;18.328;2024-02-23T08:42:45;1.43;;;1.00;;
21281;SDS011;10800;53.096;18.328;2024-02-23T08:48:02;0.50;;;0.50;;
21281;SDS011;10800;53.096;18.328;2024-02-23T08:53:10;1.07;;;0.53;;
21281;SDS011;10800;53.096;18.328;2024-02-23T08:58:17;1.50;;;0.60;;
21281;SDS011;10800;53.096;18.328;2024-02-23T09:03:22;2.90;;;1.03;;
21281;SDS011;10800;53.096;18.328;2024-02-23T09:08:36;1.53;;;0.80;;
21281;SDS011;10800;53.096;18.328;2024-02-23T09:13:45;6.97;;;1.43;;
21281;SDS011;10800;53.096;18.328;2024-02-23T09:24:11;2.87;;;1.07;;
21281;SDS011;10800;53.096;18.328;2024-02-23T09:29:23;2.07;;;0.87;;
21281;SDS011;10800;53.096;18.328;2024-02-23T09:34:41;4.17;;;1.23;;
21281;SDS011;10800;53.096;18.328;2024-02-23T09:39:52;1.50;;;0.87;;
21281;SDS011;10800;53.096;18.328;2024-02-23T09:45:03;1.80;;;0.80;;
21281;SDS011;10800;53.096;18.328;2024-02-23T09:50:09;3.07;;;1.20;;
21281;SDS011;10800;53.096;18.328;2024-02-23T09:55:22;0.93;;;0.53;;
21281;SDS011;10800;53.096;18.328;2024-02-23T10:00:34;1.27;;;0.63;;
21281;SDS011;10800;53.096;18.328;2024-02-23T10:05:54;2.67;;;0.90;;
21281;SDS011;10800;53.096;18.328;2024-02-23T10:11:05;2.73;;;1.10;;
21281;SDS011;10800;53.096;18.328;2024-02-23T10:16:16;2.73;;;1.00;;
21281;SDS011;10800;53.096;18.328;2024-02-23T10:21:30;1.63;;;0.67;;
21281;SDS011;10800;53.096;18.328;2024-02-23T10:26:42;2.40;;;1.00;;
21281;SDS011;10800;53.096;18.328;2024-02-23T10:31:51;1.50;;;1.13;;
21281;SDS011;10800;53.096;18.328;2024-02-23T10:36:57;2.03;;;1.40;;
21281;SDS011;10800;53.096;18.328;2024-02-23T10:42:05;1.63;;;0.40;;
21281;SDS011;10800;53.096;18.328;2024-02-23T10:47:15;0.40;;;0.40;;
21281;SDS011;10800;53.096;18.328;2024-02-23T10:52:20;0.67;;;0.30;;
21281;SDS011;10800;53.096;18.328;2024-02-23T10:57:28;1.30;;;0.43;;
21281;SDS011;10800;53.096;18.328;2024-02-23T11:02:45;0.50;;;0.50;;
21281;SDS011;10800;53.096;18.328;2024-02-23T11:07:46;1.30;;;0.70;;
21281;SDS011;10800;53.096;18.328;2024-02-23T11:12:58;4.40;;;0.80;;
21281;SDS011;10800;53.096;18.328;2024-02-23T11:18:27;3.10;;;0.90;;
21281;SDS011;10800;53.096;18.328;2024-02-23T11:23:48;0.47;;;0.40;;
21281;SDS011;10800;53.096;18.328;2024-02-23T11:28:52;2.83;;;0.83;;
21281;SDS011;10800;53.096;18.328;2024-02-23T11:33:58;1.33;;;0.80;;
21281;SDS011;10800;53.096;18.328;2024-02-23T11:39:22;4.97;;;2.60;;
21281;SDS011;10800;53.096;18.328;2024-02-23T11:44:27;7.80;;;2.87;;
21281;SDS011;10800;53.096;18.328;2024-02-23T11:49:33;0.70;;;0.43;;
21281;SDS011;10800;53.096;18.328;2024-02-23T11:54:41;3.17;;;2.17;;
21281;SDS011;10800;53.096;18.328;2024-02-23T11:59:50;1.33;;;0.50;;
21281;SDS011;10800;53.096;18.328;2024-02-23T12:04:58;0.93;;;0.60;;
21281;SDS011;10800;53.096;18.328;2024-02-23T12:10:11;1.47;;;0.60;;
21281;SDS011;10800;53.096;18.328;2024-02-23T12:15:24;14.67;;;4.27;;
21281;SDS011;10800;53.096;18.328;2024-02-23T12:20:34;8.83;;;2.47;;
21281;SDS011;10800;53.096;18.328;2024-02-23T12:25:51;11.43;;;2.50;;
21281;SDS011;10800;53.096;18.328;2024-02-23T12:31:27;3.63;;;0.80;;
21281;SDS011;10800;53.096;18.328;2024-02-23T12:36:34;3.30;;;0.50;;
21281;SDS011;10800;53.096;18.328;2024-02-23T12:41:47;1.30;;;0.43;;
21281;SDS011;10800;53.096;18.328;2024-02-23T12:46:54;8.60;;;2.57;;
21281;SDS011;10800;53.096;18.328;2024-02-23T12:51:59;12.60;;;3.73;;
21281;SDS011;10800;53.096;18.328;2024-02-23T12:57:05;2.87;;;0.50;;
21281;SDS011;10800;53.096;18.328;2024-02-23T13:02:10;0.70;;;0.60;;
21281;SDS011;10800;53.096;18.328;2024-02-23T13:07:17;1.00;;;0.70;;
21281;SDS011;10800;53.096;18.328;2024-02-23T13:12:22;0.77;;;0.50;;
21281;SDS011;10800;53.096;18.328;2024-02-23T13:17:28;1.63;;;1.33;;
21281;SDS011;10800;53.096;18.328;2024-02-23T13:22:33;6.00;;;0.90;;
21281;SDS011;10800;53.096;18.328;2024-02-23T13:27:39;1.57;;;0.60;;
21281;SDS011;10800;53.096;18.328;2024-02-23T13:32:44;1.73;;;1.03;;
21281;SDS011;10800;53.096;18.328;2024-02-23T13:37:50;1.23;;;0.70;;
21281;SDS011;10800;53.096;18.328;2024-02-23T13:42:56;1.53;;;0.50;;
21281;SDS011;10800;53.096;18.328;2024-02-23T13:48:03;1.63;;;0.77;;
21281;SDS011;10800;53.096;18.328;2024-02-23T13:53:09;0.73;;;0.70;;
21281;SDS011;10800;53.096;18.328;2024-02-23T13:58:20;0.90;;;0.67;;
21281;SDS011;10800;53.096;18.328;2024-02-23T14:03:28;1.10;;;0.67;;
21281;SDS011;10800;53.096;18.328;2024-02-23T14:08:35;2.00;;;0.70;;
21281;SDS011;10800;53.096;18.328;2024-02-23T14:13:41;2.27;;;0.50;;
21281;SDS011;10800;53.096;18.328;2024-02-23T14:18:49;0.93;;;0.83;;
21281;SDS011;10800;53.096;18.328;2024-02-23T14:23:55;1.87;;;1.27;;
21281;SDS011;10800;53.096;18.328;2024-02-23T14:29:01;2.77;;;1.17;;
21281;SDS011;10800;53.096;18.328;2024-02-23T14:34:07;8.00;;;1.20;;
21281;SDS011;10800;53.096;18.328;2024-02-23T14:39:18;3.13;;;1.50;;
21281;SDS011;10800;53.096;18.328;2024-02-23T14:44:24;2.97;;;1.60;;
21281;SDS011;10800;53.096;18.328;2024-02-23T14:49:30;5.73;;;3.23;;
21281;SDS011;10800;53.096;18.328;2024-02-23T14:54:36;3.87;;;1.70;;
21281;SDS011;10800;53.096;18.328;2024-02-23T14:59:42;3.03;;;1.67;;
21281;SDS011;10800;53.096;18.328;2024-02-23T15:04:49;37.37;;;14.00;;
21281;SDS011;10800;53.096;18.328;2024-02-23T15:09:54;71.47;;;27.50;;
21281;SDS011;10800;53.096;18.328;2024-02-23T15:15:00;41.07;;;16.80;;
21281;SDS011;10800;53.096;18.328;2024-02-23T15:20:06;32.23;;;15.03;;
21281;SDS011;10800;53.096;18.328;2024-02-23T15:25:12;11.00;;;5.73;;
21281;SDS011;10800;53.096;18.328;2024-02-23T15:30:19;8.30;;;4.33;;
21281;SDS011;10800;53.096;18.328;2024-02-23T15:35:24;2.67;;;2.00;;
21281;SDS011;10800;53.096;18.328;2024-02-23T15:40:31;8.83;;;3.47;;
21281;SDS011;10800;53.096;18.328;2024-02-23T15:45:37;8.73;;;2.73;;
21281;SDS011;10800;53.096;18.328;2024-02-23T15:50:42;5.50;;;2.60;;
21281;SDS011;10800;53.096;18.328;2024-02-23T15:55:50;5.13;;;1.97;;
21281;SDS011;10800;53.096;18.328;2024-02-23T16:00:56;9.60;;;3.00;;
21281;SDS011;10800;53.096;18.328;2024-02-23T16:06:01;10.37;;;3.07;;
21281;SDS011;10800;53.096;18.328;2024-02-23T16:11:08;5.03;;;2.10;;
21281;SDS011;10800;53.096;18.328;2024-02-23T16:16:14;6.63;;;2.57;;
21281;SDS011;10800;53.096;18.328;2024-02-23T16:21:20;12.77;;;1.33;;
21281;SDS011;10800;53.096;18.328;2024-02-23T16:26:26;4.70;;;1.40;;
21281;SDS011;10800;53.096;18.328;2024-02-23T16:31:33;10.97;;;3.33;;
21281;SDS011;10800;53.096;18.328;2024-02-23T16:36:41;5.37;;;2.60;;
21281;SDS011;10800;53.096;18.328;2024-02-23T16:41:48;12.10;;;4.60;;
21281;SDS011;10800;53.096;18.328;2024-02-23T16:46:54;18.57;;;5.40;;
21281;SDS011;10800;53.096;18.328;2024-02-23T16:52:00;20.00;;;5.93;;
21281;SDS011;10800;53.096;18.328;2024-02-23T16:57:05;14.53;;;4.23;;
21281;SDS011;10800;53.096;18.328;2024-02-23T17:02:13;13.70;;;4.37;;
21281;SDS011;10800;53.096;18.328;2024-02-23T17:07:18;9.63;;;4.50;;
21281;SDS011;10800;53.096;18.328;2024-02-23T17:12:24;54.47;;;13.70;;
21281;SDS011;10800;53.096;18.328;2024-02-23T17:17:31;44.40;;;12.37;;
21281;SDS011;10800;53.096;18.328;2024-02-23T17:22:37;52.37;;;14.47;;
21281;SDS011;10800;53.096;18.328;2024-02-23T17:27:43;25.03;;;8.70;;
21281;SDS011;10800;53.096;18.328;2024-02-23T17:32:49;36.33;;;14.13;;
21281;SDS011;10800;53.096;18.328;2024-02-23T17:37:57;20.87;;;8.67;;
21281;SDS011;10800;53.096;18.328;2024-02-23T17:43:03;28.50;;;10.27;;
21281;SDS011;10800;53.096;18.328;2024-02-23T17:48:08;31.63;;;15.63;;
21281;SDS011;10800;53.096;18.328;2024-02-23T17:53:14;86.73;;;28.43;;
21281;SDS011;10800;53.096;18.328;2024-02-23T17:58:23;32.20;;;12.97;;
21281;SDS011;10800;53.096;18.328;2024-02-23T18:03:29;20.77;;;8.93;;
21281;SDS011;10800;53.096;18.328;2024-02-23T18:08:39;22.57;;;7.30;;
21281;SDS011;10800;53.096;18.328;2024-02-23T18:13:47;28.03;;;8.47;;
21281;SDS011;10800;53.096;18.328;2024-02-23T18:18:55;34.83;;;12.87;;
21281;SDS011;10800;53.096;18.328;2024-02-23T18:24:02;59.33;;;17.47;;
21281;SDS011;10800;53.096;18.328;2024-02-23T18:29:10;10.90;;;3.20;;
21281;SDS011;10800;53.096;18.328;2024-02-23T18:34:17;27.00;;;10.87;;
21281;SDS011;10800;53.096;18.328;2024-02-23T18:39:26;13.97;;;7.10;;
21281;SDS011;10800;53.096;18.328;2024-02-23T18:44:35;10.83;;;4.17;;
21281;SDS011;10800;53.096;18.328;2024-02-23T18:49:40;15.40;;;4.90;;
21281;SDS011;10800;53.096;18.328;2024-02-23T18:54:46;25.93;;;8.17;;
21281;SDS011;10800;53.096;18.328;2024-02-23T18:59:55;25.70;;;10.93;;
21281;SDS011;10800;53.096;18.328;2024-02-23T19:05:09;32.40;;;10.57;;
21281;SDS011;10800;53.096;18.328;2024-02-23T19:10:15;35.40;;;10.87;;
21281;SDS011;10800;53.096;18.328;2024-02-23T19:15:21;14.53;;;5.60;;
21281;SDS011;10800;53.096;18.328;2024-02-23T19:20:27;31.23;;;9.20;;
21281;SDS011;10800;53.096;18.328;2024-02-23T19:25:32;38.90;;;12.93;;
21281;SDS011;10800;53.096;18.328;2024-02-23T19:30:40;31.33;;;11.03;;
21281;SDS011;10800;53.096;18.328;2024-02-23T19:35:56;30.07;;;8.87;;
21281;SDS011;10800;53.096;18.328;2024-02-23T19:41:08;19.23;;;6.40;;
21281;SDS011;10800;53.096;18.328;2024-02-23T19:46:13;19.30;;;7.40;;
21281;SDS011;10800;53.096;18.328;2024-02-23T19:51:42;28.67;;;8.73;;
21281;SDS011;10800;53.096;18.328;2024-02-23T19:57:00;26.53;;;8.60;;
21281;SDS011;10800;53.096;18.328;2024-02-23T20:02:09;31.23;;;11.27;;
21281;SDS011;10800;53.096;18.328;2024-02-23T20:07:28;49.23;;;12.77;;
21281;SDS011;10800;53.096;18.328;2024-02-23T20:12:42;38.83;;;12.30;;
21281;SDS011;10800;53.096;18.328;2024-02-23T20:17:51;22.10;;;8.50;;
21281;SDS011;10800;53.096;18.328;2024-02-23T20:23:09;22.70;;;8.93;;
21281;SDS011;10800;53.096;18.328;2024-02-23T20:28:24;50.90;;;13.17;;
21281;SDS011;10800;53.096;18.328;2024-02-23T20:33:34;56.23;;;13.27;;
21281;SDS011;10800;53.096;18.328;2024-02-23T20:38:45;44.50;;;12.17;;
21281;SDS011;10800;53.096;18.328;2024-02-23T20:44:00;26.47;;;7.83;;
21281;SDS011;10800;53.096;18.328;2024-02-23T20:49:14;22.30;;;7.10;;
21281;SDS011;10800;53.096;18.328;2024-02-23T20:54:20;28.80;;;9.03;;
21281;SDS011;10800;53.096;18.328;2024-02-23T20:59:27;27.00;;;8.77;;
21281;SDS011;10800;53.096;18.328;2024-02-23T21:04:40;27.80;;;8.73;;
21281;SDS011;10800;53.096;18.328;2024-02-23T21:09:56;28.03;;;9.13;;
21281;SDS011;10800;53.096;18.328;2024-02-23T21:15:03;22.67;;;8.23;;
21281;SDS011;10800;53.096;18.328;2024-02-23T21:20:09;22.80;;;7.43;;
21281;SDS011;10800;53.096;18.328;2024-02-23T21:25:16;17.30;;;6.97;;
21281;SDS011;10800;53.096;18.328;2024-02-23T21:30:23;28.20;;;11.90;;
21281;SDS011;10800;53.096;18.328;2024-02-23T21:35:28;47.57;;;12.23;;
21281;SDS011;10800;53.096;18.328;2024-02-23T21:40:34;51.60;;;12.53;;
21281;SDS011;10800;53.096;18.328;2024-02-23T21:45:39;55.80;;;15.40;;
21281;SDS011;10800;53.096;18.328;2024-02-23T21:50:45;37.23;;;11.57;;
21281;SDS011;10800;53.096;18.328;2024-02-23T21:55:52;22.97;;;7.67;;
21281;SDS011;10800;53.096;18.328;2024-02-23T22:00:57;22.00;;;8.37;;
21281;SDS011;10800;53.096;18.328;2024-02-23T22:06:07;18.27;;;6.93;;
21281;SDS011;10800;53.096;18.328;2024-02-23T22:11:21;13.63;;;6.23;;
21281;SDS011;10800;53.096;18.328;2024-02-23T22:16:29;15.33;;;5.00;;
21281;SDS011;10800;53.096;18.328;2024-02-23T22:21:34;14.63;;;5.33;;
21281;SDS011;10800;53.096;18.328;2024-02-23T22:26:42;14.57;;;4.83;;
21281;SDS011;10800;53.096;18.328;2024-02-23T22:31:51;20.20;;;6.80;;
21281;SDS011;10800;53.096;18.328;2024-02-23T22:36:56;20.73;;;8.17;;
21281;SDS011;10800;53.096;18.328;2024-02-23T22:42:22;25.57;;;7.73;;
21281;SDS011;10800;53.096;18.328;2024-02-23T22:47:28;12.97;;;4.43;;
21281;SDS011;10800;53.096;18.328;2024-02-23T22:52:37;13.17;;;4.67;;
21281;SDS011;10800;53.096;18.328;2024-02-23T22:57:45;9.17;;;3.20;;
21281;SDS011;10800;53.096;18.328;2024-02-23T23:02:51;4.77;;;2.73;;
21281;SDS011;10800;53.096;18.328;2024-02-23T23:08:08;7.37;;;3.30;;
21281;SDS011;10800;53.096;18.328;2024-02-23T23:13:17;26.67;;;9.33;;
21281;SDS011;10800;53.096;18.328;2024-02-23T23:18:25;77.73;;;20.00;;
21281;SDS011;10800;53.096;18.328;2024-02-23T23:23:36;70.60;;;19.73;;
21281;SDS011;10800;53.096;18.328;2024-02-23T23:28:45;83.13;;;25.23;;
21281;SDS011;10800;53.096;18.328;2024-02-23T23:34:08;21.40;;;7.63;;
21281;SDS011;10800;53.096;18.328;2024-02-23T23:39:21;13.47;;;7.07;;
21281;SDS011;10800;53.096;18.328;2024-02-23T23:44:40;20.37;;;7.27;;
21281;SDS011;10800;53.096;18.328;2024-02-23T23:49:50;17.83;;;7.87;;
21281;SDS011;10800;53.096;18.328;2024-02-23T23:55:07;19.70;;;8.13;;
